Bridgeport, Indiana
Current Conditions -  °F | °C
As of 10:54 PM on Friday 24 Oct 2014 (Local Time) from KIND Reporting Station
Few Clouds Few Clouds  
Wind Chill: 53°   Ceiling: Unl
Heat Index: 53°   Visibility: 10mi
Dew Point: 48°   Wind: 5mph
Humidity: 83%   Direction: 210°SSW
Pressure: 30.02"   Gusts: NA
Location:  39.7216°N, 86.3233°W
Report Text: KIND 250254Z 21004KT 10SM FEW220 12/09 A3002 RMK AO2 SLP165 T01170089 56002
Loading
Personal Weather Stations






























Interactive Weather Map
Tropical Storm Tracking
New forecast layout! Learn more

10-Day Weather Forecast

Advertisements
Track Severe Weather on mobile